Nordic Philip — 5BZH2 — position and weather

sailwx.info

Track history (hours):
 
Tides and Currents Weather Stations Pressure Air Temp Water Temp Dewpoint Dewpoint Depression Visibility Wind Speed Wind Dir Waves Ship Positions

Nordic Philip

Last reported at 2017-Nov-20 00:17 UTC. Time now 2017-Nov-24 22:13 UTC.
Position N 60°29' E 019°03'.

Length 152 m; draft 6.8 m.

Type: Ship (hazmat cat A). MMSI: 212018000.

Date/timePositionNaut miles runAvg speedWind from/ knotsBaromVisibWave heightAir tempDewpointWater temp
2017-Nov-20 00:17N 60°29' E 019°03'412.9
2017-Nov-20 00:00N 60°26' E 019°02'612.9
2017-Nov-19 23:30N 60°19' E 019°01'612.6
2017-Nov-19 23:00N 60°13' E 019°04'613.0
2017-Nov-19 22:30N 60°08' E 019°11'713.4
2017-Nov-19 22:00N 60°03' E 019°20'713.1
2017-Nov-19 21:30N 59°58' E 019°28'713.3
2017-Nov-19 21:00N 59°52' E 019°37'713.5
2017-Nov-19 20:30N 59°47' E 019°45'24112.4
2017-Nov-19 01:06N 56°05' E 016°48'113.0
2017-Nov-19 01:00N 56°05' E 016°47'612.9
2017-Nov-19 00:30N 56°01' E 016°37'713.0
2017-Nov-19 00:00N 55°57' E 016°28'713.0
2017-Nov-18 23:30N 55°54' E 016°17'713.0
2017-Nov-18 23:00N 55°51' E 016°07'713.1
2017-Nov-18 22:30N 55°48' E 015°56'613.1
2017-Nov-18 22:00N 55°45' E 015°46'713.1
2017-Nov-18 21:30N 55°42' E 015°36'713.2
2017-Nov-18 21:00N 55°39' E 015°26'713.3
2017-Nov-18 20:30N 55°36' E 015°16'713.2
2017-Nov-18 20:00N 55°32' E 015°05'613.1
2017-Nov-18 19:30N 55°29' E 014°55'713.0
2017-Nov-18 19:00N 55°26' E 014°45'713.1
2017-Nov-18 18:30N 55°22' E 014°36'713.2
2017-Nov-18 18:00N 55°17' E 014°29'612.9
2017-Nov-18 17:30N 55°12' E 014°22'612.8
2017-Nov-18 17:00N 55°07' E 014°15'712.9
2017-Nov-18 16:30N 55°02' E 014°07'812.5
2017-Nov-18 15:50N 54°58' E 013°54'612.4
2017-Nov-18 15:21N 54°57' E 013°44'4013.0
2017-Nov-18 12:14N 54°43' E 012°39'313.5
2017-Nov-18 12:00N 54°41' E 012°34'1912.7
2017-Nov-18 10:31N 54°27' E 012°13'014.2
2017-Nov-18 10:30N 54°27' E 012°13'1012.9
2017-Nov-18 09:45N 54°25' E 011°56'513.8
2017-Nov-18 09:24N 54°25' E 011°48'513.0
2017-Nov-18 09:00N 54°27' E 011°40'713.3
2017-Nov-18 08:30N 54°30' E 011°30'613.1
2017-Nov-18 08:00N 54°33' E 011°19'713.2
2017-Nov-18 07:30N 54°35' E 011°09'713.5
2017-Nov-18 07:00N 54°35' E 010°57'713.3
2017-Nov-18 06:30N 54°34' E 010°46'713.2
2017-Nov-18 06:00N 54°33' E 010°35'713.2
2017-Nov-18 05:30N 54°31' E 010°24'19 6.0
2017-Nov-18 02:16N 54°21' E 009°55'2 5.2
2017-Nov-18 01:58N 54°21' E 009°53'1 2.8
2017-Nov-18 01:30N 54°22' E 009°51'4 8.0
2017-Nov-18 01:00N 54°20' E 009°45'4 7.5
2017-Nov-18 00:30N 54°18' E 009°40'2 4.5
2017-Nov-18 00:00N 54°16' E 009°38'0 0.8
2017-Nov-17 23:30N 54°16' E 009°37'4 7.6
2017-Nov-17 23:00N 54°12' E 009°34'4 8.7
2017-Nov-17 22:30N 54°11' E 009°27'4 7.3
2017-Nov-17 22:00N 54°09' E 009°22'3 6.1
2017-Nov-17 21:30N 54°06' E 009°20'4 8.3
2017-Nov-17 21:00N 54°02' E 009°18'4 8.0
2017-Nov-17 20:30N 53°58' E 009°16'3 6.5
2017-Nov-17 20:00N 53°56' E 009°12'2 3.9
2017-Nov-17 19:30N 53°54' E 009°10'1 2.1
2017-Nov-17 18:59N 53°54' E 009°09'0 0.2
2017-Nov-17 18:30N 53°54' E 009°08'2 3.3
2017-Nov-17 18:00N 53°53' E 009°06'3 6.2
2017-Nov-17 17:31N 53°51' E 009°01'510.8
2017-Nov-17 17:01N 53°50' E 008°52'5 9.9
2017-Nov-17 16:31N 53°52' E 008°44'510.6
2017-Nov-17 16:01N 53°56' E 008°39'611.6
2017-Nov-17 15:30N 53°58' E 008°30'713.4
2017-Nov-17 15:00N 53°59' E 008°19'713.4
2017-Nov-17 14:30N 53°59' E 008°07'714.4
2017-Nov-17 14:00N 53°55' E 007°57'3 6.9
2017-Nov-17 13:30N 53°52' E 007°57'816.0
2017-Nov-17 13:00N 53°48' E 008°09'816.7
2017-Nov-17 12:30N 53°42' E 008°19'815.3
2017-Nov-17 12:00N 53°37' E 008°29'3 6.3
2017-Nov-17 11:30N 53°35' E 008°32'0 0.0
2017-Nov-17 10:59N 53°35' E 008°32'0 0.0
2017-Nov-17 10:29N 53°35' E 008°32'0 0.0
2017-Nov-17 10:01N 53°35' E 008°32'0 0.0
2017-Nov-17 09:28N 53°35' E 008°32'0 0.0
2017-Nov-17 08:58N 53°35' E 008°32'0 0.0
2017-Nov-17 08:28N 53°35' E 008°32'0 0.0
2017-Nov-17 07:58N 53°35' E 008°32'0 0.0
2017-Nov-17 07:30N 53°35' E 008°32'0 0.0
2017-Nov-17 07:00N 53°35' E 008°32'0 0.0
2017-Nov-17 06:30N 53°35' E 008°32'0 0.0
2017-Nov-17 06:00N 53°35' E 008°32'0 0.0
2017-Nov-17 05:30N 53°35' E 008°32'0 0.1
2017-Nov-17 05:00N 53°35' E 008°32'4 7.4
2017-Nov-17 04:30N 53°38' E 008°28'612.4
2017-Nov-17 04:00N 53°42' E 008°20'612.8
2017-Nov-17 03:30N 53°46' E 008°11'612.6
2017-Nov-17 03:00N 53°50' E 008°04'713.3
2017-Nov-17 02:30N 53°52' E 007°53'5 9.5
2017-Nov-17 02:00N 53°56' E 007°58'611.2
2017-Nov-17 01:30N 54°00' E 008°04'5 9.4
2017-Nov-17 01:00N 53°60' E 008°12'713.8
2017-Nov-17 00:30N 53°59' E 008°24'815.6
2017-Nov-17 00:00N 53°57' E 008°37'714.0
2017-Nov-16 23:31N 53°52' E 008°44'612.6
2017-Nov-16 23:00N 53°51' E 008°54'612.8
2017-Nov-16 22:30N 53°53' E 009°05'4 8.3
2017-Nov-16 22:00N 53°53' E 009°12'510.2
2017-Nov-16 21:30N 53°51' E 009°20'510.6
2017-Nov-16 21:00N 53°46' E 009°24'611.4
2017-Nov-16 20:30N 53°42' E 009°30'713.6
2017-Nov-16 20:00N 53°36' E 009°36'612.3
2017-Nov-16 19:30N 53°34' E 009°46'5 9.7
2017-Nov-16 19:00N 53°33' E 009°54'1 1.6
2017-Nov-16 18:30N 53°32' E 009°54'0 0.0
2017-Nov-16 18:00N 53°32' E 009°54'0 0.0
2017-Nov-16 17:30N 53°32' E 009°54'0 0.0
2017-Nov-16 17:00N 53°32' E 009°54'0 0.0
2017-Nov-16 16:30N 53°32' E 009°54'0 0.0
2017-Nov-16 16:00N 53°32' E 009°54'0 0.0
2017-Nov-16 15:30N 53°32' E 009°54'0 0.0
2017-Nov-16 15:00N 53°32' E 009°54'0 0.0
2017-Nov-16 14:30N 53°32' E 009°54'0 0.0
2017-Nov-16 13:59N 53°32' E 009°54'1 2.5
2017-Nov-16 13:30N 53°32' E 009°56'1 2.0
2017-Nov-16 12:59N 53°31' E 009°56'0 0.0
2017-Nov-16 12:29N 53°31' E 009°56'0 0.0
2017-Nov-16 11:59N 53°31' E 009°56'0 0.0
2017-Nov-16 11:29N 53°31' E 009°56'0 0.0
2017-Nov-16 10:59N 53°31' E 009°56'0 0.0
2017-Nov-16 10:29N 53°31' E 009°56'0 0.0
2017-Nov-16 09:59N 53°31' E 009°56'0 0.0
2017-Nov-16 09:29N 53°31' E 009°56'0 0.0
2017-Nov-16 08:59N 53°31' E 009°56'0 0.0
2017-Nov-16 08:29N 53°31' E 009°56'0 0.0
2017-Nov-16 07:59N 53°31' E 009°56'0 0.0
2017-Nov-16 07:29N 53°31' E 009°56'0 0.0
2017-Nov-16 06:59N 53°31' E 009°56'0 0.0
2017-Nov-16 06:29N 53°31' E 009°56'0 0.0
2017-Nov-16 05:59N 53°31' E 009°56'0 0.0
2017-Nov-16 05:29N 53°31' E 009°56'0 0.0
2017-Nov-16 04:59N 53°31' E 009°56'0 0.0
2017-Nov-16 04:29N 53°31' E 009°56'0 0.0
2017-Nov-16 03:59N 53°31' E 009°56'0 0.0
2017-Nov-16 03:29N 53°31' E 009°56'0 0.0
2017-Nov-16 02:59N 53°31' E 009°56'0 0.0
2017-Nov-16 02:29N 53°31' E 009°56'0 0.0
2017-Nov-16 01:59N 53°31' E 009°56'0 0.0
2017-Nov-16 01:29N 53°31' E 009°56'0 0.0
2017-Nov-16 00:59N 53°31' E 009°56'0 0.0
2017-Nov-16 00:29N 53°31' E 009°56'0 0.0
2017-Nov-15 23:59N 53°31' E 009°56'0 0.6
2017-Nov-15 23:31N 53°31' E 009°56'1 2.0
2017-Nov-15 23:00N 53°32' E 009°55'0 0.0
2017-Nov-15 22:30N 53°32' E 009°55'0 0.0
2017-Nov-15 22:00N 53°32' E 009°55'0 0.0
2017-Nov-15 21:30N 53°32' E 009°55'0 0.0
2017-Nov-15 21:00N 53°32' E 009°55'0 0.0
2017-Nov-15 20:30N 53°32' E 009°55'0 0.0
2017-Nov-15 20:00N 53°32' E 009°55'0 0.0
2017-Nov-15 19:30N 53°32' E 009°55'0 0.0
2017-Nov-15 19:00N 53°32' E 009°55'0 0.0
2017-Nov-15 18:30N 53°32' E 009°55'0 0.0
2017-Nov-15 18:00N 53°32' E 009°55'0 0.0
2017-Nov-15 17:30N 53°32' E 009°55'0 0.0
2017-Nov-15 17:00N 53°32' E 009°55'0 0.0
2017-Nov-15 16:30N 53°32' E 009°55'0 0.0
2017-Nov-15 16:00N 53°32' E 009°55'0 0.0
2017-Nov-15 15:30N 53°32' E 009°55'0 0.0
2017-Nov-15 15:00N 53°32' E 009°55'0 0.0
2017-Nov-15 14:30N 53°32' E 009°55'0 0.0
2017-Nov-15 14:00N 53°32' E 009°55'0 0.0
2017-Nov-15 13:30N 53°32' E 009°55'0 0.0
2017-Nov-15 13:00N 53°32' E 009°55'0 0.0
2017-Nov-15 12:30N 53°32' E 009°55'0 0.0
2017-Nov-15 12:00N 53°32' E 009°55'0 0.7
2017-Nov-15 11:30N 53°32' E 009°55'2 4.2
2017-Nov-15 11:01N 53°33' E 009°52'510.8
2017-Nov-15 10:31N 53°34' E 009°43'713.9
2017-Nov-15 10:01N 53°37' E 009°33'714.1
2017-Nov-15 09:30N 53°44' E 009°27'816.7
2017-Nov-15 09:00N 53°51' E 009°20'714.7
2017-Nov-15 08:31N 53°53' E 009°08'1 1.2
2017-Nov-15 08:00N 53°54' E 009°09'1 2.8
2017-Nov-15 07:30N 53°55' E 009°10'4 7.2
2017-Nov-15 07:01N 53°57' E 009°14'4 8.0
2017-Nov-15 06:31N 54°01' E 009°18'4 7.3
2017-Nov-15 06:00N 54°04' E 009°19'4 8.4
2017-Nov-15 05:30N 54°08' E 009°21'4 7.5
2017-Nov-15 05:00N 54°10' E 009°26'4 7.7
2017-Nov-15 04:30N 54°12' E 009°32'4 7.6
2017-Nov-15 04:00N 54°15' E 009°37'3 6.9
2017-Nov-15 03:30N 54°17' E 009°40'3 5.6
2017-Nov-15 03:00N 54°20' E 009°43'3 6.5
2017-Nov-15 02:30N 54°22' E 009°47'6 7.7
2017-Nov-15 01:40N 54°21' E 009°58'9 3.4
2017-Nov-14 23:09N 54°24' E 010°12'411.9
2017-Nov-14 22:51N 54°27' E 010°14'511.2
2017-Nov-14 22:26N 54°31' E 010°20'715.6
2017-Nov-14 22:00N 54°33' E 010°31'816.3
2017-Nov-14 21:30N 54°35' E 010°44'816.4
2017-Nov-14 21:00N 54°36' E 010°58'815.9
2017-Nov-14 20:30N 54°35' E 011°12'816.1
2017-Nov-14 20:00N 54°32' E 011°25'815.7
2017-Nov-14 19:30N 54°29' E 011°37'815.7
2017-Nov-14 19:00N 54°26' E 011°50'815.8
2017-Nov-14 18:30N 54°26' E 012°03'713.7
2017-Nov-14 18:00N 54°30' E 012°13'6214.8
2017-Nov-14 13:49N 55°01' E 013°46'614.9
2017-Nov-14 13:26N 55°03' E 013°56'814.9
2017-Nov-14 12:52N 55°08' E 014°08'615.7
2017-Nov-14 12:27N 55°13' E 014°15'716.0
2017-Nov-14 12:00N 55°19' E 014°23'816.3
2017-Nov-14 11:30N 55°25' E 014°32'916.1
2017-Nov-14 10:58N 55°30' E 014°45'916.4
2017-Nov-14 10:27N 55°34' E 014°58'716.3
2017-Nov-14 10:00N 55°37' E 015°09'816.2
2017-Nov-14 09:30N 55°42' E 015°21'816.3
2017-Nov-14 09:00N 55°46' E 015°34'816.3
2017-Nov-14 08:30N 55°50' E 015°46'816.4
2017-Nov-14 08:00N 55°55' E 015°58'816.7
2017-Nov-14 07:30N 55°58' E 016°11'816.7
2017-Nov-14 07:00N 56°03' E 016°24'917.0
2017-Nov-14 06:30N 56°07' E 016°37'816.5
2017-Nov-14 06:00N 56°14' E 016°47'816.8
2017-Nov-14 05:30N 56°21' E 016°53'  
Track history (hours):
 
Tides and Currents Weather Stations Pressure Air Temp Water Temp Dewpoint Dewpoint Depression Visibility Wind Speed Wind Dir Waves Ship Positions

Nordic Philip

Last reported at 2017-Nov-20 00:17 UTC. Time now 2017-Nov-24 22:13 UTC.
Position N 60°29' E 019°03'.

Length 152 m; draft 6.8 m.

Type: Ship (hazmat cat A). MMSI: 212018000.

Date/timePositionNaut miles runAvg speedWind from/ knotsBaromVisibWave heightAir tempDewpointWater temp
2017-Nov-20 00:17N 60°29' E 019°03'412.9
2017-Nov-20 00:00N 60°26' E 019°02'612.9
2017-Nov-19 23:30N 60°19' E 019°01'612.6
2017-Nov-19 23:00N 60°13' E 019°04'613.0
2017-Nov-19 22:30N 60°08' E 019°11'713.4
2017-Nov-19 22:00N 60°03' E 019°20'713.1
2017-Nov-19 21:30N 59°58' E 019°28'713.3
2017-Nov-19 21:00N 59°52' E 019°37'713.5
2017-Nov-19 20:30N 59°47' E 019°45'24112.4
2017-Nov-19 01:06N 56°05' E 016°48'113.0
2017-Nov-19 01:00N 56°05' E 016°47'612.9
2017-Nov-19 00:30N 56°01' E 016°37'713.0
2017-Nov-19 00:00N 55°57' E 016°28'713.0
2017-Nov-18 23:30N 55°54' E 016°17'713.0
2017-Nov-18 23:00N 55°51' E 016°07'713.1
2017-Nov-18 22:30N 55°48' E 015°56'613.1
2017-Nov-18 22:00N 55°45' E 015°46'713.1
2017-Nov-18 21:30N 55°42' E 015°36'713.2
2017-Nov-18 21:00N 55°39' E 015°26'713.3
2017-Nov-18 20:30N 55°36' E 015°16'713.2
2017-Nov-18 20:00N 55°32' E 015°05'613.1
2017-Nov-18 19:30N 55°29' E 014°55'713.0
2017-Nov-18 19:00N 55°26' E 014°45'713.1
2017-Nov-18 18:30N 55°22' E 014°36'713.2
2017-Nov-18 18:00N 55°17' E 014°29'612.9
2017-Nov-18 17:30N 55°12' E 014°22'612.8
2017-Nov-18 17:00N 55°07' E 014°15'712.9
2017-Nov-18 16:30N 55°02' E 014°07'812.5
2017-Nov-18 15:50N 54°58' E 013°54'612.4
2017-Nov-18 15:21N 54°57' E 013°44'4013.0
2017-Nov-18 12:14N 54°43' E 012°39'313.5
2017-Nov-18 12:00N 54°41' E 012°34'1912.7
2017-Nov-18 10:31N 54°27' E 012°13'014.2
2017-Nov-18 10:30N 54°27' E 012°13'1012.9
2017-Nov-18 09:45N 54°25' E 011°56'513.8
2017-Nov-18 09:24N 54°25' E 011°48'513.0
2017-Nov-18 09:00N 54°27' E 011°40'713.3
2017-Nov-18 08:30N 54°30' E 011°30'613.1
2017-Nov-18 08:00N 54°33' E 011°19'713.2
2017-Nov-18 07:30N 54°35' E 011°09'713.5
2017-Nov-18 07:00N 54°35' E 010°57'713.3
2017-Nov-18 06:30N 54°34' E 010°46'713.2
2017-Nov-18 06:00N 54°33' E 010°35'713.2
2017-Nov-18 05:30N 54°31' E 010°24'19 6.0
2017-Nov-18 02:16N 54°21' E 009°55'2 5.2
2017-Nov-18 01:58N 54°21' E 009°53'1 2.8
2017-Nov-18 01:30N 54°22' E 009°51'4 8.0
2017-Nov-18 01:00N 54°20' E 009°45'4 7.5
2017-Nov-18 00:30N 54°18' E 009°40'2 4.5
2017-Nov-18 00:00N 54°16' E 009°38'0 0.8
2017-Nov-17 23:30N 54°16' E 009°37'4 7.6
2017-Nov-17 23:00N 54°12' E 009°34'4 8.7
2017-Nov-17 22:30N 54°11' E 009°27'4 7.3
2017-Nov-17 22:00N 54°09' E 009°22'3 6.1
2017-Nov-17 21:30N 54°06' E 009°20'4 8.3
2017-Nov-17 21:00N 54°02' E 009°18'4 8.0
2017-Nov-17 20:30N 53°58' E 009°16'3 6.5
2017-Nov-17 20:00N 53°56' E 009°12'2 3.9
2017-Nov-17 19:30N 53°54' E 009°10'1 2.1
2017-Nov-17 18:59N 53°54' E 009°09'0 0.2
2017-Nov-17 18:30N 53°54' E 009°08'2 3.3
2017-Nov-17 18:00N 53°53' E 009°06'3 6.2
2017-Nov-17 17:31N 53°51' E 009°01'510.8
2017-Nov-17 17:01N 53°50' E 008°52'5 9.9
2017-Nov-17 16:31N 53°52' E 008°44'510.6
2017-Nov-17 16:01N 53°56' E 008°39'611.6
2017-Nov-17 15:30N 53°58' E 008°30'713.4
2017-Nov-17 15:00N 53°59' E 008°19'713.4
2017-Nov-17 14:30N 53°59' E 008°07'714.4
2017-Nov-17 14:00N 53°55' E 007°57'3 6.9
2017-Nov-17 13:30N 53°52' E 007°57'816.0
2017-Nov-17 13:00N 53°48' E 008°09'816.7
2017-Nov-17 12:30N 53°42' E 008°19'815.3
2017-Nov-17 12:00N 53°37' E 008°29'3 6.3
2017-Nov-17 11:30N 53°35' E 008°32'0 0.0
2017-Nov-17 10:59N 53°35' E 008°32'0 0.0
2017-Nov-17 10:29N 53°35' E 008°32'0 0.0
2017-Nov-17 10:01N 53°35' E 008°32'0 0.0
2017-Nov-17 09:28N 53°35' E 008°32'0 0.0
2017-Nov-17 08:58N 53°35' E 008°32'0 0.0
2017-Nov-17 08:28N 53°35' E 008°32'0 0.0
2017-Nov-17 07:58N 53°35' E 008°32'0 0.0
2017-Nov-17 07:30N 53°35' E 008°32'0 0.0
2017-Nov-17 07:00N 53°35' E 008°32'0 0.0
2017-Nov-17 06:30N 53°35' E 008°32'0 0.0
2017-Nov-17 06:00N 53°35' E 008°32'0 0.0
2017-Nov-17 05:30N 53°35' E 008°32'0 0.1
2017-Nov-17 05:00N 53°35' E 008°32'4 7.4
2017-Nov-17 04:30N 53°38' E 008°28'612.4
2017-Nov-17 04:00N 53°42' E 008°20'612.8
2017-Nov-17 03:30N 53°46' E 008°11'612.6
2017-Nov-17 03:00N 53°50' E 008°04'713.3
2017-Nov-17 02:30N 53°52' E 007°53'5 9.5
2017-Nov-17 02:00N 53°56' E 007°58'611.2
2017-Nov-17 01:30N 54°00' E 008°04'5 9.4
2017-Nov-17 01:00N 53°60' E 008°12'713.8
2017-Nov-17 00:30N 53°59' E 008°24'815.6
2017-Nov-17 00:00N 53°57' E 008°37'714.0
2017-Nov-16 23:31N 53°52' E 008°44'612.6
2017-Nov-16 23:00N 53°51' E 008°54'612.8
2017-Nov-16 22:30N 53°53' E 009°05'4 8.3
2017-Nov-16 22:00N 53°53' E 009°12'510.2
2017-Nov-16 21:30N 53°51' E 009°20'510.6
2017-Nov-16 21:00N 53°46' E 009°24'611.4
2017-Nov-16 20:30N 53°42' E 009°30'713.6
2017-Nov-16 20:00N 53°36' E 009°36'612.3
2017-Nov-16 19:30N 53°34' E 009°46'5 9.7
2017-Nov-16 19:00N 53°33' E 009°54'1 1.6
2017-Nov-16 18:30N 53°32' E 009°54'0 0.0
2017-Nov-16 18:00N 53°32' E 009°54'0 0.0
2017-Nov-16 17:30N 53°32' E 009°54'0 0.0
2017-Nov-16 17:00N 53°32' E 009°54'0 0.0
2017-Nov-16 16:30N 53°32' E 009°54'0 0.0
2017-Nov-16 16:00N 53°32' E 009°54'0 0.0
2017-Nov-16 15:30N 53°32' E 009°54'0 0.0
2017-Nov-16 15:00N 53°32' E 009°54'0 0.0
2017-Nov-16 14:30N 53°32' E 009°54'0 0.0
2017-Nov-16 13:59N 53°32' E 009°54'1 2.5
2017-Nov-16 13:30N 53°32' E 009°56'1 2.0
2017-Nov-16 12:59N 53°31' E 009°56'0 0.0
2017-Nov-16 12:29N 53°31' E 009°56'0 0.0
2017-Nov-16 11:59N 53°31' E 009°56'0 0.0
2017-Nov-16 11:29N 53°31' E 009°56'0 0.0
2017-Nov-16 10:59N 53°31' E 009°56'0 0.0
2017-Nov-16 10:29N 53°31' E 009°56'0 0.0
2017-Nov-16 09:59N 53°31' E 009°56'0 0.0
2017-Nov-16 09:29N 53°31' E 009°56'0 0.0
2017-Nov-16 08:59N 53°31' E 009°56'0 0.0
2017-Nov-16 08:29N 53°31' E 009°56'0 0.0
2017-Nov-16 07:59N 53°31' E 009°56'0 0.0
2017-Nov-16 07:29N 53°31' E 009°56'0 0.0
2017-Nov-16 06:59N 53°31' E 009°56'0 0.0
2017-Nov-16 06:29N 53°31' E 009°56'0 0.0
2017-Nov-16 05:59N 53°31' E 009°56'0 0.0
2017-Nov-16 05:29N 53°31' E 009°56'0 0.0
2017-Nov-16 04:59N 53°31' E 009°56'0 0.0
2017-Nov-16 04:29N 53°31' E 009°56'0 0.0
2017-Nov-16 03:59N 53°31' E 009°56'0 0.0
2017-Nov-16 03:29N 53°31' E 009°56'0 0.0
2017-Nov-16 02:59N 53°31' E 009°56'0 0.0
2017-Nov-16 02:29N 53°31' E 009°56'0 0.0
2017-Nov-16 01:59N 53°31' E 009°56'0 0.0
2017-Nov-16 01:29N 53°31' E 009°56'0 0.0
2017-Nov-16 00:59N 53°31' E 009°56'0 0.0
2017-Nov-16 00:29N 53°31' E 009°56'0 0.0
2017-Nov-15 23:59N 53°31' E 009°56'0 0.6
2017-Nov-15 23:31N 53°31' E 009°56'1 2.0
2017-Nov-15 23:00N 53°32' E 009°55'0 0.0
2017-Nov-15 22:30N 53°32' E 009°55'0 0.0
2017-Nov-15 22:00N 53°32' E 009°55'0 0.0
2017-Nov-15 21:30N 53°32' E 009°55'0 0.0
2017-Nov-15 21:00N 53°32' E 009°55'0 0.0
2017-Nov-15 20:30N 53°32' E 009°55'0 0.0
2017-Nov-15 20:00N 53°32' E 009°55'0 0.0
2017-Nov-15 19:30N 53°32' E 009°55'0 0.0
2017-Nov-15 19:00N 53°32' E 009°55'0 0.0
2017-Nov-15 18:30N 53°32' E 009°55'0 0.0
2017-Nov-15 18:00N 53°32' E 009°55'0 0.0
2017-Nov-15 17:30N 53°32' E 009°55'0 0.0
2017-Nov-15 17:00N 53°32' E 009°55'0 0.0
2017-Nov-15 16:30N 53°32' E 009°55'0 0.0
2017-Nov-15 16:00N 53°32' E 009°55'0 0.0
2017-Nov-15 15:30N 53°32' E 009°55'0 0.0
2017-Nov-15 15:00N 53°32' E 009°55'0 0.0
2017-Nov-15 14:30N 53°32' E 009°55'0 0.0
2017-Nov-15 14:00N 53°32' E 009°55'0 0.0
2017-Nov-15 13:30N 53°32' E 009°55'0 0.0
2017-Nov-15 13:00N 53°32' E 009°55'0 0.0
2017-Nov-15 12:30N 53°32' E 009°55'0 0.0
2017-Nov-15 12:00N 53°32' E 009°55'0 0.7
2017-Nov-15 11:30N 53°32' E 009°55'2 4.2
2017-Nov-15 11:01N 53°33' E 009°52'510.8
2017-Nov-15 10:31N 53°34' E 009°43'713.9
2017-Nov-15 10:01N 53°37' E 009°33'714.1
2017-Nov-15 09:30N 53°44' E 009°27'816.7
2017-Nov-15 09:00N 53°51' E 009°20'714.7
2017-Nov-15 08:31N 53°53' E 009°08'1 1.2
2017-Nov-15 08:00N 53°54' E 009°09'1 2.8
2017-Nov-15 07:30N 53°55' E 009°10'4 7.2
2017-Nov-15 07:01N 53°57' E 009°14'4 8.0
2017-Nov-15 06:31N 54°01' E 009°18'4 7.3
2017-Nov-15 06:00N 54°04' E 009°19'4 8.4
2017-Nov-15 05:30N 54°08' E 009°21'4 7.5
2017-Nov-15 05:00N 54°10' E 009°26'4 7.7
2017-Nov-15 04:30N 54°12' E 009°32'4 7.6
2017-Nov-15 04:00N 54°15' E 009°37'3 6.9
2017-Nov-15 03:30N 54°17' E 009°40'3 5.6
2017-Nov-15 03:00N 54°20' E 009°43'3 6.5
2017-Nov-15 02:30N 54°22' E 009°47'6 7.7
2017-Nov-15 01:40N 54°21' E 009°58'9 3.4
2017-Nov-14 23:09N 54°24' E 010°12'411.9
2017-Nov-14 22:51N 54°27' E 010°14'511.2
2017-Nov-14 22:26N 54°31' E 010°20'715.6
2017-Nov-14 22:00N 54°33' E 010°31'816.3
2017-Nov-14 21:30N 54°35' E 010°44'816.4
2017-Nov-14 21:00N 54°36' E 010°58'815.9
2017-Nov-14 20:30N 54°35' E 011°12'816.1
2017-Nov-14 20:00N 54°32' E 011°25'815.7
2017-Nov-14 19:30N 54°29' E 011°37'815.7
2017-Nov-14 19:00N 54°26' E 011°50'815.8
2017-Nov-14 18:30N 54°26' E 012°03'713.7
2017-Nov-14 18:00N 54°30' E 012°13'6214.8
2017-Nov-14 13:49N 55°01' E 013°46'614.9
2017-Nov-14 13:26N 55°03' E 013°56'814.9
2017-Nov-14 12:52N 55°08' E 014°08'615.7
2017-Nov-14 12:27N 55°13' E 014°15'716.0
2017-Nov-14 12:00N 55°19' E 014°23'816.3
2017-Nov-14 11:30N 55°25' E 014°32'916.1
2017-Nov-14 10:58N 55°30' E 014°45'916.4
2017-Nov-14 10:27N 55°34' E 014°58'716.3
2017-Nov-14 10:00N 55°37' E 015°09'816.2
2017-Nov-14 09:30N 55°42' E 015°21'816.3
2017-Nov-14 09:00N 55°46' E 015°34'816.3
2017-Nov-14 08:30N 55°50' E 015°46'816.4
2017-Nov-14 08:00N 55°55' E 015°58'816.7
2017-Nov-14 07:30N 55°58' E 016°11'816.7
2017-Nov-14 07:00N 56°03' E 016°24'917.0
2017-Nov-14 06:30N 56°07' E 016°37'816.5
2017-Nov-14 06:00N 56°14' E 016°47'816.8
2017-Nov-14 05:30N 56°21' E 016°53'  

Dump ship's entire track history